sensor_id;sensor_type;location;lat;lon;timestamp;pressure;altitude;pressure_sealevel;temperature
63158;BMP280;49381;49.338;8.794;2022-07-10T00:00:12;100947.50;;;18.67
63158;BMP280;49381;49.338;8.794;2022-07-10T00:02:12;100945.91;;;18.61
63158;BMP280;49381;49.338;8.794;2022-07-10T00:04:13;100942.47;;;18.62
63158;BMP280;49381;49.338;8.794;2022-07-10T00:06:13;100943.31;;;18.62
63158;BMP280;49381;49.338;8.794;2022-07-10T00:08:13;100943.56;;;18.47
63158;BMP280;49381;49.338;8.794;2022-07-10T00:10:14;100942.75;;;18.44
63158;BMP280;49381;49.338;8.794;2022-07-10T00:12:14;100941.69;;;18.57
63158;BMP280;49381;49.338;8.794;2022-07-10T00:14:16;100947.84;;;18.47
63158;BMP280;49381;49.338;8.794;2022-07-10T00:16:16;100946.97;;;18.49
63158;BMP280;49381;49.338;8.794;2022-07-10T00:18:16;100951.16;;;18.55
63158;BMP280;49381;49.338;8.794;2022-07-10T00:20:17;100951.19;;;18.52
63158;BMP280;49381;49.338;8.794;2022-07-10T00:22:17;100949.53;;;18.49
63158;BMP280;49381;49.338;8.794;2022-07-10T00:24:17;100951.38;;;18.40
63158;BMP280;49381;49.338;8.794;2022-07-10T00:26:18;100950.63;;;18.35
63158;BMP280;49381;49.338;8.794;2022-07-10T00:28:18;100945.34;;;18.42
63158;BMP280;49381;49.338;8.794;2022-07-10T00:30:20;100945.41;;;18.39
63158;BMP280;49381;49.338;8.794;2022-07-10T00:32:20;100953.13;;;18.38
63158;BMP280;49381;49.338;8.794;2022-07-10T00:34:20;100956.56;;;18.37
63158;BMP280;49381;49.338;8.794;2022-07-10T00:36:21;100951.44;;;18.34
63158;BMP280;49381;49.338;8.794;2022-07-10T00:38:21;100954.88;;;18.36
63158;BMP280;49381;49.338;8.794;2022-07-10T00:40:21;100944.72;;;18.27
63158;BMP280;49381;49.338;8.794;2022-07-10T00:42:22;100950.69;;;18.31
63158;BMP280;49381;49.338;8.794;2022-07-10T00:44:22;100961.72;;;18.34
63158;BMP280;49381;49.338;8.794;2022-07-10T00:46:25;100950.91;;;18.16
63158;BMP280;49381;49.338;8.794;2022-07-10T00:48:25;100950.94;;;18.14
63158;BMP280;49381;49.338;8.794;2022-07-10T00:50:26;100953.50;;;18.14
63158;BMP280;49381;49.338;8.794;2022-07-10T00:52:26;100959.44;;;18.16
63158;BMP280;49381;49.338;8.794;2022-07-10T00:54:27;100952.75;;;18.07
63158;BMP280;49381;49.338;8.794;2022-07-10T00:56:28;100948.59;;;17.98
63158;BMP280;49381;49.338;8.794;2022-07-10T00:58:28;100949.53;;;17.90
63158;BMP280;49381;49.338;8.794;2022-07-10T01:00:29;100949.41;;;18.02
63158;BMP280;49381;49.338;8.794;2022-07-10T01:02:31;100946.91;;;17.93
63158;BMP280;49381;49.338;8.794;2022-07-10T01:04:33;100950.34;;;17.92
63158;BMP280;49381;49.338;8.794;2022-07-10T01:06:33;100938.34;;;17.94
63158;BMP280;49381;49.338;8.794;2022-07-10T01:08:33;100952.88;;;17.98
63158;BMP280;49381;49.338;8.794;2022-07-10T01:10:34;100951.09;;;18.03
63158;BMP280;49381;49.338;8.794;2022-07-10T01:12:35;100950.31;;;17.98
63158;BMP280;49381;49.338;8.794;2022-07-10T01:14:35;100953.72;;;18.00
63158;BMP280;49381;49.338;8.794;2022-07-10T01:16:36;100951.25;;;17.89
63158;BMP280;49381;49.338;8.794;2022-07-10T01:18:38;100955.72;;;17.76
63158;BMP280;49381;49.338;8.794;2022-07-10T01:20:39;100958.09;;;17.87
63158;BMP280;49381;49.338;8.794;2022-07-10T01:22:40;100959.16;;;17.75
63158;BMP280;49381;49.338;8.794;2022-07-10T01:24:41;100963.34;;;17.80
63158;BMP280;49381;49.338;8.794;2022-07-10T01:26:41;100956.56;;;17.76
63158;BMP280;49381;49.338;8.794;2022-07-10T01:28:41;100959.22;;;17.70
63158;BMP280;49381;49.338;8.794;2022-07-10T01:30:42;100957.47;;;17.69
63158;BMP280;49381;49.338;8.794;2022-07-10T01:32:42;100957.63;;;17.59
63158;BMP280;49381;49.338;8.794;2022-07-10T01:34:43;100959.22;;;17.67
63158;BMP280;49381;49.338;8.794;2022-07-10T01:36:43;100955.84;;;17.65
63158;BMP280;49381;49.338;8.794;2022-07-10T01:38:45;100959.34;;;17.59
63158;BMP280;49381;49.338;8.794;2022-07-10T01:40:45;100948.22;;;17.61
63158;BMP280;49381;49.338;8.794;2022-07-10T01:42:46;100949.94;;;17.61
63158;BMP280;49381;49.338;8.794;2022-07-10T01:44:46;100950.00;;;17.53
63158;BMP280;49381;49.338;8.794;2022-07-10T01:46:46;100944.97;;;17.44
63158;BMP280;49381;49.338;8.794;2022-07-10T01:48:47;100955.28;;;17.41
63158;BMP280;49381;49.338;8.794;2022-07-10T01:50:48;100947.44;;;17.53
63158;BMP280;49381;49.338;8.794;2022-07-10T01:52:48;100955.28;;;17.41
63158;BMP280;49381;49.338;8.794;2022-07-10T01:54:50;100958.75;;;17.37
63158;BMP280;49381;49.338;8.794;2022-07-10T01:56:50;100961.34;;;17.36
63158;BMP280;49381;49.338;8.794;2022-07-10T01:58:50;100966.47;;;17.36
63158;BMP280;49381;49.338;8.794;2022-07-10T02:00:51;100967.19;;;17.47
63158;BMP280;49381;49.338;8.794;2022-07-10T02:02:51;100974.78;;;17.53
63158;BMP280;49381;49.338;8.794;2022-07-10T02:04:51;100968.75;;;17.58
63158;BMP280;49381;49.338;8.794;2022-07-10T02:06:52;100966.28;;;17.51
63158;BMP280;49381;49.338;8.794;2022-07-10T02:08:52;100965.53;;;17.41
63158;BMP280;49381;49.338;8.794;2022-07-10T02:10:54;100972.44;;;17.36
63158;BMP280;49381;49.338;8.794;2022-07-10T02:12:54;100963.88;;;17.37
63158;BMP280;49381;49.338;8.794;2022-07-10T02:14:54;100971.59;;;17.33
63158;BMP280;49381;49.338;8.794;2022-07-10T02:16:55;100973.41;;;17.25
63158;BMP280;49381;49.338;8.794;2022-07-10T02:18:55;100971.84;;;17.11
63158;BMP280;49381;49.338;8.794;2022-07-10T02:20:55;100982.78;;;17.25
63158;BMP280;49381;49.338;8.794;2022-07-10T02:22:56;100977.66;;;17.28
63158;BMP280;49381;49.338;8.794;2022-07-10T02:24:56;100981.81;;;17.35
63158;BMP280;49381;49.338;8.794;2022-07-10T02:26:58;100974.22;;;17.29
63158;BMP280;49381;49.338;8.794;2022-07-10T02:28:58;100973.34;;;17.31
63158;BMP280;49381;49.338;8.794;2022-07-10T02:30:58;100984.41;;;17.33
63158;BMP280;49381;49.338;8.794;2022-07-10T02:32:59;100984.47;;;17.29
63158;BMP280;49381;49.338;8.794;2022-07-10T02:34:59;100981.03;;;17.31
63158;BMP280;49381;49.338;8.794;2022-07-10T02:36:59;100983.56;;;17.33
63158;BMP280;49381;49.338;8.794;2022-07-10T02:39:00;100981.84;;;17.33
63158;BMP280;49381;49.338;8.794;2022-07-10T02:41:00;100976.69;;;17.37
63158;BMP280;49381;49.338;8.794;2022-07-10T02:43:02;100980.97;;;17.37
63158;BMP280;49381;49.338;8.794;2022-07-10T02:45:03;100978.41;;;17.34
63158;BMP280;49381;49.338;8.794;2022-07-10T02:47:03;100986.19;;;17.27
63158;BMP280;49381;49.338;8.794;2022-07-10T02:49:04;100986.22;;;17.24
63158;BMP280;49381;49.338;8.794;2022-07-10T02:51:04;100989.63;;;17.26
63158;BMP280;49381;49.338;8.794;2022-07-10T02:53:05;100983.56;;;17.33
63158;BMP280;49381;49.338;8.794;2022-07-10T02:55:06;100980.28;;;17.19
63158;BMP280;49381;49.338;8.794;2022-07-10T02:57:06;100987.19;;;17.15
63158;BMP280;49381;49.338;8.794;2022-07-10T02:59:08;100989.78;;;17.11
63158;BMP280;49381;49.338;8.794;2022-07-10T03:01:08;100984.72;;;17.05
63158;BMP280;49381;49.338;8.794;2022-07-10T03:03:09;100992.34;;;17.10
63158;BMP280;49381;49.338;8.794;2022-07-10T03:05:09;101001.00;;;16.94
63158;BMP280;49381;49.338;8.794;2022-07-10T03:07:10;101002.75;;;16.92
63158;BMP280;49381;49.338;8.794;2022-07-10T03:09:10;101004.47;;;16.88
63158;BMP280;49381;49.338;8.794;2022-07-10T03:11:10;101000.13;;;16.96
63158;BMP280;49381;49.338;8.794;2022-07-10T03:13:11;100996.72;;;16.96
63158;BMP280;49381;49.338;8.794;2022-07-10T03:15:12;100996.75;;;16.93
63158;BMP280;49381;49.338;8.794;2022-07-10T03:17:13;100991.75;;;16.78
63158;BMP280;49381;49.338;8.794;2022-07-10T03:19:13;101007.97;;;16.77
63158;BMP280;49381;49.338;8.794;2022-07-10T03:21:13;101014.75;;;16.84
63158;BMP280;49381;49.338;8.794;2022-07-10T03:23:14;100996.84;;;16.85
63158;BMP280;49381;49.338;8.794;2022-07-10T03:25:14;101008.81;;;16.78
63158;BMP280;49381;49.338;8.794;2022-07-10T03:27:15;101006.28;;;16.76
63158;BMP280;49381;49.338;8.794;2022-07-10T03:29:15;101011.41;;;16.76
63158;BMP280;49381;49.338;8.794;2022-07-10T03:31:16;101010.56;;;16.76
63158;BMP280;49381;49.338;8.794;2022-07-10T03:33:17;101009.81;;;16.59
63158;BMP280;49381;49.338;8.794;2022-07-10T03:35:17;101014.97;;;16.60
63158;BMP280;49381;49.338;8.794;2022-07-10T03:37:18;101010.69;;;16.58
63158;BMP280;49381;49.338;8.794;2022-07-10T03:39:18;101014.06;;;16.60
63158;BMP280;49381;49.338;8.794;2022-07-10T03:41:18;101014.06;;;16.60
63158;BMP280;49381;49.338;8.794;2022-07-10T03:43:19;101006.47;;;16.50
63158;BMP280;49381;49.338;8.794;2022-07-10T03:45:19;101009.78;;;16.63
63158;BMP280;49381;49.338;8.794;2022-07-10T03:47:21;101017.41;;;16.72
63158;BMP280;49381;49.338;8.794;2022-07-10T03:49:21;101007.97;;;16.77
63158;BMP280;49381;49.338;8.794;2022-07-10T03:51:21;101007.97;;;16.79
63158;BMP280;49381;49.338;8.794;2022-07-10T03:53:22;101005.34;;;16.86
63158;BMP280;49381;49.338;8.794;2022-07-10T03:55:22;101013.06;;;16.83
63158;BMP280;49381;49.338;8.794;2022-07-10T03:57:22;101001.00;;;16.95
63158;BMP280;49381;49.338;8.794;2022-07-10T03:59:23;101008.69;;;16.94
63158;BMP280;49381;49.338;8.794;2022-07-10T04:01:23;101006.06;;;17.00
63158;BMP280;49381;49.338;8.794;2022-07-10T04:03:25;101018.03;;;16.98
63158;BMP280;49381;49.338;8.794;2022-07-10T04:05:26;101033.47;;;16.92
63158;BMP280;49381;49.338;8.794;2022-07-10T04:07:26;101014.66;;;16.94
63158;BMP280;49381;49.338;8.794;2022-07-10T04:09:27;101031.75;;;16.95
63158;BMP280;49381;49.338;8.794;2022-07-10T04:11:27;101018.88;;;17.00
63158;BMP280;49381;49.338;8.794;2022-07-10T04:13:27;101018.03;;;17.05
63158;BMP280;49381;49.338;8.794;2022-07-10T04:15:28;101007.66;;;17.17
63158;BMP280;49381;49.338;8.794;2022-07-10T04:17:29;101017.81;;;17.24
63158;BMP280;49381;49.338;8.794;2022-07-10T04:19:30;101010.16;;;17.23
63158;BMP280;49381;49.338;8.794;2022-07-10T04:21:31;101003.28;;;17.26
63158;BMP280;49381;49.338;8.794;2022-07-10T04:23:32;101003.19;;;17.36
63158;BMP280;49381;49.338;8.794;2022-07-10T04:25:32;101003.06;;;17.47
63158;BMP280;49381;49.338;8.794;2022-07-10T04:27:32;101005.69;;;17.41
63158;BMP280;49381;49.338;8.794;2022-07-10T04:29:33;101004.69;;;17.52
63158;BMP280;49381;49.338;8.794;2022-07-10T04:31:33;101013.22;;;17.54
63158;BMP280;49381;49.338;8.794;2022-07-10T04:33:33;101013.25;;;17.53
63158;BMP280;49381;49.338;8.794;2022-07-10T04:35:35;101014.00;;;17.62
63158;BMP280;49381;49.338;8.794;2022-07-10T04:37:35;101013.16;;;17.59
63158;BMP280;49381;49.338;8.794;2022-07-10T04:39:36;101015.63;;;17.70
63158;BMP280;49381;49.338;8.794;2022-07-10T04:41:36;101018.81;;;17.87
63158;BMP280;49381;49.338;8.794;2022-07-10T04:43:37;101019.56;;;17.98
63158;BMP280;49381;49.338;8.794;2022-07-10T04:45:37;101017.72;;;18.07
63158;BMP280;49381;49.338;8.794;2022-07-10T04:47:37;101013.34;;;18.15
63158;BMP280;49381;49.338;8.794;2022-07-10T04:49:38;101007.34;;;18.16
63158;BMP280;49381;49.338;8.794;2022-07-10T04:51:39;101010.59;;;18.27
63158;BMP280;49381;49.338;8.794;2022-07-10T04:53:40;101014.78;;;18.35
63158;BMP280;49381;49.338;8.794;2022-07-10T04:55:40;101018.06;;;18.44
63158;BMP280;49381;49.338;8.794;2022-07-10T04:57:40;101016.94;;;18.59
63158;BMP280;49381;49.338;8.794;2022-07-10T04:59:41;101019.41;;;18.66
63158;BMP280;49381;49.338;8.794;2022-07-10T05:01:41;101021.78;;;18.78
63158;BMP280;49381;49.338;8.794;2022-07-10T05:03:41;101017.38;;;18.87
63158;BMP280;49381;49.338;8.794;2022-07-10T05:05:42;101013.75;;;19.00
63158;BMP280;49381;49.338;8.794;2022-07-10T05:07:43;101021.31;;;19.07
63158;BMP280;49381;49.338;8.794;2022-07-10T05:09:44;101024.50;;;19.21
63158;BMP280;49381;49.338;8.794;2022-07-10T05:11:44;101025.09;;;19.35
63158;BMP280;49381;49.338;8.794;2022-07-10T05:13:44;101025.34;;;19.21
63158;BMP280;49381;49.338;8.794;2022-07-10T05:15:45;101026.91;;;19.30
63158;BMP280;49381;49.338;8.794;2022-07-10T05:17:45;101036.16;;;19.38
63158;BMP280;49381;49.338;8.794;2022-07-10T05:19:46;101030.06;;;19.45
63158;BMP280;49381;49.338;8.794;2022-07-10T05:21:46;101025.84;;;19.41
63158;BMP280;49381;49.338;8.794;2022-07-10T05:23:48;101024.97;;;19.42
63158;BMP280;49381;49.338;8.794;2022-07-10T05:25:48;101024.22;;;19.36
63158;BMP280;49381;49.338;8.794;2022-07-10T05:27:48;101036.91;;;19.44
63158;BMP280;49381;49.338;8.794;2022-07-10T05:29:49;101033.19;;;19.60
63158;BMP280;49381;49.338;8.794;2022-07-10T05:31:49;101039.91;;;19.68
63158;BMP280;49381;49.338;8.794;2022-07-10T05:33:49;101041.47;;;19.75
63158;BMP280;49381;49.338;8.794;2022-07-10T05:35:50;101038.06;;;19.75
63158;BMP280;49381;49.338;8.794;2022-07-10T05:37:50;101052.50;;;19.82
63158;BMP280;49381;49.338;8.794;2022-07-10T05:39:52;101050.63;;;19.89
63158;BMP280;49381;49.338;8.794;2022-07-10T05:41:52;101045.63;;;19.82
63158;BMP280;49381;49.338;8.794;2022-07-10T05:43:52;101043.94;;;19.81
63158;BMP280;49381;49.338;8.794;2022-07-10T05:45:53;101048.81;;;19.50
63158;BMP280;49381;49.338;8.794;2022-07-10T05:47:53;101049.31;;;19.22
63158;BMP280;49381;49.338;8.794;2022-07-10T05:49:53;101050.09;;;18.73
63158;BMP280;49381;49.338;8.794;2022-07-10T05:51:54;101055.84;;;18.91
63158;BMP280;49381;49.338;8.794;2022-07-10T05:53:54;101055.34;;;19.21
63158;BMP280;49381;49.338;8.794;2022-07-10T05:55:59;101054.97;;;19.41
63158;BMP280;49381;49.338;8.794;2022-07-10T05:57:59;101054.59;;;19.14
63158;BMP280;49381;49.338;8.794;2022-07-10T06:00:00;101061.09;;;18.86
63158;BMP280;49381;49.338;8.794;2022-07-10T06:02:00;101060.47;;;19.21
63158;BMP280;49381;49.338;8.794;2022-07-10T06:04:01;101059.22;;;19.44
63158;BMP280;49381;49.338;8.794;2022-07-10T06:06:01;101062.31;;;19.61
63158;BMP280;49381;49.338;8.794;2022-07-10T06:08:01;101061.94;;;19.81
63158;BMP280;49381;49.338;8.794;2022-07-10T06:10:03;101064.91;;;20.04
63158;BMP280;49381;49.338;8.794;2022-07-10T06:12:05;101065.75;;;20.04
63158;BMP280;49381;49.338;8.794;2022-07-10T06:14:06;101066.41;;;20.14
63158;BMP280;49381;49.338;8.794;2022-07-10T06:16:06;101057.16;;;20.05
63158;BMP280;49381;49.338;8.794;2022-07-10T06:18:07;101065.41;;;19.80
63158;BMP280;49381;49.338;8.794;2022-07-10T06:20:08;101067.94;;;19.82
63158;BMP280;49381;49.338;8.794;2022-07-10T06:22:09;101072.06;;;19.90
63158;BMP280;49381;49.338;8.794;2022-07-10T06:24:09;101068.78;;;19.82
63158;BMP280;49381;49.338;8.794;2022-07-10T06:26:09;101070.78;;;19.65
63158;BMP280;49381;49.338;8.794;2022-07-10T06:28:11;101069.22;;;19.59
63158;BMP280;49381;49.338;8.794;2022-07-10T06:30:11;101074.09;;;19.73
63158;BMP280;49381;49.338;8.794;2022-07-10T06:32:12;101070.16;;;19.53
63158;BMP280;49381;49.338;8.794;2022-07-10T06:34:12;101065.25;;;19.41
63158;BMP280;49381;49.338;8.794;2022-07-10T06:36:12;101072.41;;;19.25
63158;BMP280;49381;49.338;8.794;2022-07-10T06:38:13;101078.09;;;19.88
63158;BMP280;49381;49.338;8.794;2022-07-10T06:40:13;101067.88;;;20.25
63158;BMP280;49381;49.338;8.794;2022-07-10T06:42:15;101080.38;;;20.41
63158;BMP280;49381;49.338;8.794;2022-07-10T06:44:16;101063.19;;;20.03
63158;BMP280;49381;49.338;8.794;2022-07-10T06:46:17;101070.53;;;19.80
63158;BMP280;49381;49.338;8.794;2022-07-10T06:48:17;101070.13;;;19.56
63158;BMP280;49381;49.338;8.794;2022-07-10T06:50:17;101079.22;;;19.73
63158;BMP280;49381;49.338;8.794;2022-07-10T06:52:18;101074.28;;;19.62
63158;BMP280;49381;49.338;8.794;2022-07-10T06:54:18;101071.13;;;19.48
63158;BMP280;49381;49.338;8.794;2022-07-10T06:56:19;101066.66;;;19.57
63158;BMP280;49381;49.338;8.794;2022-07-10T06:58:19;101068.47;;;19.54
63158;BMP280;49381;49.338;8.794;2022-07-10T07:00:21;101065.94;;;19.95
63158;BMP280;49381;49.338;8.794;2022-07-10T07:02:21;101062.63;;;20.29
63158;BMP280;49381;49.338;8.794;2022-07-10T07:04:21;101055.13;;;20.59
63158;BMP280;49381;49.338;8.794;2022-07-10T07:06:22;101061.16;;;20.58
63158;BMP280;49381;49.338;8.794;2022-07-10T07:08:22;101056.50;;;20.73
63158;BMP280;49381;49.338;8.794;2022-07-10T07:10:22;101054.03;;;20.67
63158;BMP280;49381;49.338;8.794;2022-07-10T07:12:23;101059.94;;;20.72
63158;BMP280;49381;49.338;8.794;2022-07-10T07:14:23;101062.25;;;20.83
63158;BMP280;49381;49.338;8.794;2022-07-10T07:16:25;101068.00;;;20.95
63158;BMP280;49381;49.338;8.794;2022-07-10T07:18:25;101062.22;;;20.50
63158;BMP280;49381;49.338;8.794;2022-07-10T07:20:26;101066.50;;;20.09
63158;BMP280;49381;49.338;8.794;2022-07-10T07:22:27;101063.91;;;20.48
63158;BMP280;49381;49.338;8.794;2022-07-10T07:24:27;101067.66;;;20.74
63158;BMP280;49381;49.338;8.794;2022-07-10T07:26:28;101069.28;;;20.76
63158;BMP280;49381;49.338;8.794;2022-07-10T07:28:28;101064.97;;;20.78
63158;BMP280;49381;49.338;8.794;2022-07-10T07:30:28;101077.03;;;20.76
63158;BMP280;49381;49.338;8.794;2022-07-10T07:32:30;101067.34;;;20.86
63158;BMP280;49381;49.338;8.794;2022-07-10T07:34:30;101080.44;;;20.78
63158;BMP280;49381;49.338;8.794;2022-07-10T07:36:31;101082.28;;;20.72
63158;BMP280;49381;49.338;8.794;2022-07-10T07:38:31;101085.72;;;20.34
63158;BMP280;49381;49.338;8.794;2022-07-10T07:40:32;101075.28;;;20.39
63158;BMP280;49381;49.338;8.794;2022-07-10T07:42:32;101081.47;;;20.31
63158;BMP280;49381;49.338;8.794;2022-07-10T07:44:33;101082.78;;;20.10
63158;BMP280;49381;49.338;8.794;2022-07-10T07:46:34;101077.44;;;20.20
63158;BMP280;49381;49.338;8.794;2022-07-10T07:48:35;101080.34;;;20.44
63158;BMP280;49381;49.338;8.794;2022-07-10T07:50:36;101084.28;;;20.95
63158;BMP280;49381;49.338;8.794;2022-07-10T07:52:36;101067.78;;;21.04
63158;BMP280;49381;49.338;8.794;2022-07-10T07:54:36;101081.63;;;20.64
63158;BMP280;49381;49.338;8.794;2022-07-10T07:56:37;101071.31;;;21.00
63158;BMP280;49381;49.338;8.794;2022-07-10T07:58:37;101064.16;;;21.11
63158;BMP280;49381;49.338;8.794;2022-07-10T08:00:37;101078.72;;;21.46
63158;BMP280;49381;49.338;8.794;2022-07-10T08:02:38;101068.56;;;21.40
63158;BMP280;49381;49.338;8.794;2022-07-10T08:04:40;101069.16;;;20.82
63158;BMP280;49381;49.338;8.794;2022-07-10T08:06:41;101072.06;;;20.67
63158;BMP280;49381;49.338;8.794;2022-07-10T08:08:41;101073.19;;;20.92
63158;BMP280;49381;49.338;8.794;2022-07-10T08:10:41;101072.63;;;20.81
63158;BMP280;49381;49.338;8.794;2022-07-10T08:12:43;101067.72;;;20.71
63158;BMP280;49381;49.338;8.794;2022-07-10T08:14:43;101062.31;;;20.42
63158;BMP280;49381;49.338;8.794;2022-07-10T08:16:44;101066.41;;;20.14
63158;BMP280;49381;49.338;8.794;2022-07-10T08:18:44;101062.06;;;20.56
63158;BMP280;49381;49.338;8.794;2022-07-10T08:20:45;101065.72;;;20.82
63158;BMP280;49381;49.338;8.794;2022-07-10T08:22:46;101061.78;;;21.02
63158;BMP280;49381;49.338;8.794;2022-07-10T08:24:46;101051.94;;;21.17
63158;BMP280;49381;49.338;8.794;2022-07-10T08:26:47;101063.09;;;21.19
63158;BMP280;49381;49.338;8.794;2022-07-10T08:28:47;101059.88;;;21.10
63158;BMP280;49381;49.338;8.794;2022-07-10T08:30:47;101062.09;;;21.24
63158;BMP280;49381;49.338;8.794;2022-07-10T08:32:48;101051.09;;;21.18
63158;BMP280;49381;49.338;8.794;2022-07-10T08:34:48;101055.00;;;21.32
63158;BMP280;49381;49.338;8.794;2022-07-10T08:36:49;101049.13;;;21.29
63158;BMP280;49381;49.338;8.794;2022-07-10T08:38:50;101047.03;;;21.42
63158;BMP280;49381;49.338;8.794;2022-07-10T08:40:51;101044.28;;;21.48
63158;BMP280;49381;49.338;8.794;2022-07-10T08:42:53;101048.63;;;21.14
63158;BMP280;49381;49.338;8.794;2022-07-10T08:44:54;101041.50;;;21.23
63158;BMP280;49381;49.338;8.794;2022-07-10T08:46:54;101043.97;;;21.27
63158;BMP280;49381;49.338;8.794;2022-07-10T08:48:58;101044.03;;;21.24
63158;BMP280;49381;49.338;8.794;2022-07-10T08:51:02;101042.91;;;21.03
63158;BMP280;49381;49.338;8.794;2022-07-10T08:53:09;101036.53;;;21.15
63158;BMP280;49381;49.338;8.794;2022-07-10T08:55:12;101049.34;;;20.50
63158;BMP280;49381;49.338;8.794;2022-07-10T08:57:15;101051.72;;;20.93
63158;BMP280;49381;49.338;8.794;2022-07-10T08:59:18;101046.22;;;21.41
63158;BMP280;49381;49.338;8.794;2022-07-10T09:01:19;101044.63;;;21.35
63158;BMP280;49381;49.338;8.794;2022-07-10T09:03:19;101046.41;;;21.33
63158;BMP280;49381;49.338;8.794;2022-07-10T09:05:20;101043.50;;;21.45
63158;BMP280;49381;49.338;8.794;2022-07-10T09:07:20;101047.28;;;21.32
63158;BMP280;49381;49.338;8.794;2022-07-10T09:09:22;101041.72;;;21.47
63158;BMP280;49381;49.338;8.794;2022-07-10T09:11:23;101050.63;;;20.68
63158;BMP280;49381;49.338;8.794;2022-07-10T09:13:23;101054.56;;;20.81
63158;BMP280;49381;49.338;8.794;2022-07-10T09:15:24;101048.34;;;20.55
63158;BMP280;49381;49.338;8.794;2022-07-10T09:17:25;101055.81;;;20.28
63158;BMP280;49381;49.338;8.794;2022-07-10T09:19:27;101046.78;;;20.47
63158;BMP280;49381;49.338;8.794;2022-07-10T09:21:32;101047.78;;;20.79
63158;BMP280;49381;49.338;8.794;2022-07-10T09:23:32;101055.38;;;20.85
63158;BMP280;49381;49.338;8.794;2022-07-10T09:25:34;101036.75;;;21.07
63158;BMP280;49381;49.338;8.794;2022-07-10T09:27:50;101046.69;;;21.21
63158;BMP280;49381;49.338;8.794;2022-07-10T09:29:52;101051.53;;;21.35
63158;BMP280;49381;49.338;8.794;2022-07-10T09:31:53;101047.78;;;21.46
63158;BMP280;49381;49.338;8.794;2022-07-10T09:33:53;101053.03;;;21.41
63158;BMP280;49381;49.338;8.794;2022-07-10T09:36:02;101040.84;;;21.48
63158;BMP280;49381;49.338;8.794;2022-07-10T09:38:02;101045.75;;;21.57
63158;BMP280;49381;49.338;8.794;2022-07-10T09:40:04;101041.75;;;21.77
63158;BMP280;49381;49.338;8.794;2022-07-10T09:42:24;101043.88;;;21.62
63158;BMP280;49381;49.338;8.794;2022-07-10T09:44:24;101043.59;;;21.73
63158;BMP280;49381;49.338;8.794;2022-07-10T09:46:26;101048.97;;;21.65
63158;BMP280;49381;49.338;8.794;2022-07-10T09:48:27;101048.47;;;21.19
63158;BMP280;49381;49.338;8.794;2022-07-10T09:50:28;101049.63;;;21.41
63158;BMP280;49381;49.338;8.794;2022-07-10T09:52:29;101045.13;;;21.49
63158;BMP280;49381;49.338;8.794;2022-07-10T09:54:29;101045.25;;;21.74
63158;BMP280;49381;49.338;8.794;2022-07-10T09:56:39;101040.19;;;22.01
63158;BMP280;49381;49.338;8.794;2022-07-10T09:58:41;101045.22;;;22.07
63158;BMP280;49381;49.338;8.794;2022-07-10T10:00:43;101036.81;;;22.28
63158;BMP280;49381;49.338;8.794;2022-07-10T10:02:44;101039.97;;;22.37
63158;BMP280;49381;49.338;8.794;2022-07-10T10:04:46;101040.19;;;22.30
63158;BMP280;49381;49.338;8.794;2022-07-10T10:06:51;101033.34;;;21.70
63158;BMP280;49381;49.338;8.794;2022-07-10T10:08:56;101035.72;;;22.08
63158;BMP280;49381;49.338;8.794;2022-07-10T10:10:59;101032.78;;;21.90
63158;BMP280;49381;49.338;8.794;2022-07-10T10:13:02;101035.94;;;21.99
63158;BMP280;49381;49.338;8.794;2022-07-10T10:15:06;101029.41;;;22.17
63158;BMP280;49381;49.338;8.794;2022-07-10T10:17:07;101036.59;;;22.07
63158;BMP280;49381;49.338;8.794;2022-07-10T10:19:08;101036.19;;;21.60
63158;BMP280;49381;49.338;8.794;2022-07-10T10:21:08;101026.38;;;22.04
63158;BMP280;49381;49.338;8.794;2022-07-10T10:23:10;101029.25;;;21.64
63158;BMP280;49381;49.338;8.794;2022-07-10T10:25:11;101038.25;;;21.15
63158;BMP280;49381;49.338;8.794;2022-07-10T10:27:14;101031.28;;;21.51
63158;BMP280;49381;49.338;8.794;2022-07-10T10:29:15;101030.44;;;21.81
63158;BMP280;49381;49.338;8.794;2022-07-10T10:31:17;101033.16;;;21.76
63158;BMP280;49381;49.338;8.794;2022-07-10T10:33:43;101036.03;;;21.96
63158;BMP280;49381;49.338;8.794;2022-07-10T10:35:45;101026.44;;;22.02
63158;BMP280;49381;49.338;8.794;2022-07-10T10:37:50;101023.78;;;22.04
63158;BMP280;49381;49.338;8.794;2022-07-10T10:39:54;101015.81;;;22.11
63158;BMP280;49381;49.338;8.794;2022-07-10T10:41:55;101014.00;;;22.15
63158;BMP280;49381;49.338;8.794;2022-07-10T10:44:26;101019.81;;;21.91
63158;BMP280;49381;49.338;8.794;2022-07-10T10:46:28;101018.00;;;21.35
63158;BMP280;49381;49.338;8.794;2022-07-10T10:48:29;101011.41;;;21.23
63158;BMP280;49381;49.338;8.794;2022-07-10T10:50:39;101017.38;;;21.25
63158;BMP280;49381;49.338;8.794;2022-07-10T10:52:59;101016.81;;;21.46
63158;BMP280;49381;49.338;8.794;2022-07-10T10:55:02;101018.03;;;21.65
63158;BMP280;49381;49.338;8.794;2022-07-10T10:57:12;101016.91;;;21.10
63158;BMP280;49381;49.338;8.794;2022-07-10T10:59:46;101018.22;;;20.93
63158;BMP280;49381;49.338;8.794;2022-07-10T11:02:20;101014.81;;;20.91
63158;BMP280;49381;49.338;8.794;2022-07-10T11:04:20;101021.50;;;20.65
63158;BMP280;49381;49.338;8.794;2022-07-10T11:06:39;101009.44;;;21.00
63158;BMP280;49381;49.338;8.794;2022-07-10T11:08:41;101010.75;;;21.15
63158;BMP280;49381;49.338;8.794;2022-07-10T11:10:43;101004.88;;;21.43
63158;BMP280;49381;49.338;8.794;2022-07-10T11:12:59;100993.78;;;21.40
63158;BMP280;49381;49.338;8.794;2022-07-10T11:15:00;101003.38;;;21.35
63158;BMP280;49381;49.338;8.794;2022-07-10T11:17:03;101002.47;;;21.36
63158;BMP280;49381;49.338;8.794;2022-07-10T11:19:03;101008.06;;;21.51
63158;BMP280;49381;49.338;8.794;2022-07-10T11:21:04;101013.78;;;21.62
63158;BMP280;49381;49.338;8.794;2022-07-10T11:23:29;101011.31;;;21.59
63158;BMP280;49381;49.338;8.794;2022-07-10T11:25:39;101003.88;;;21.49
63158;BMP280;49381;49.338;8.794;2022-07-10T11:30:07;101003.63;;;21.56
63158;BMP280;49381;49.338;8.794;2022-07-10T11:32:09;101003.19;;;21.42